sensor_id;sensor_type;location;lat;lon;timestamp;temperature;humidity
46055;DHT22;31788;6.954;-71.872;2023-03-04T00:00:12;28.60;93.70
46055;DHT22;31788;6.954;-71.872;2023-03-04T00:02:38;28.60;93.80
46055;DHT22;31788;6.954;-71.872;2023-03-04T00:05:06;28.60;93.70
46055;DHT22;31788;6.954;-71.872;2023-03-04T00:07:32;28.50;94.00
46055;DHT22;31788;6.954;-71.872;2023-03-04T00:09:59;28.50;93.90
46055;DHT22;31788;6.954;-71.872;2023-03-04T00:12:26;28.50;93.80
46055;DHT22;31788;6.954;-71.872;2023-03-04T00:14:52;28.40;94.00
46055;DHT22;31788;6.954;-71.872;2023-03-04T00:17:19;28.50;93.80
46055;DHT22;31788;6.954;-71.872;2023-03-04T00:19:46;28.40;94.10
46055;DHT22;31788;6.954;-71.872;2023-03-04T00:22:12;28.40;94.30
46055;DHT22;31788;6.954;-71.872;2023-03-04T00:24:39;28.40;94.50
46055;DHT22;31788;6.954;-71.872;2023-03-04T00:27:06;28.40;94.20
46055;DHT22;31788;6.954;-71.872;2023-03-04T00:29:33;28.30;94.30
46055;DHT22;31788;6.954;-71.872;2023-03-04T00:31:59;28.30;94.10
46055;DHT22;31788;6.954;-71.872;2023-03-04T00:34:26;28.30;94.10
46055;DHT22;31788;6.954;-71.872;2023-03-04T00:36:52;28.30;94.10
46055;DHT22;31788;6.954;-71.872;2023-03-04T00:39:19;28.30;94.00
46055;DHT22;31788;6.954;-71.872;2023-03-04T00:41:47;28.30;94.10
46055;DHT22;31788;6.954;-71.872;2023-03-04T00:44:15;28.30;94.00
46055;DHT22;31788;6.954;-71.872;2023-03-04T00:46:42;28.40;94.00
46055;DHT22;31788;6.954;-71.872;2023-03-04T00:49:08;28.40;94.10
46055;DHT22;31788;6.954;-71.872;2023-03-04T00:51:35;28.40;93.90
46055;DHT22;31788;6.954;-71.872;2023-03-04T00:54:02;28.30;93.70
46055;DHT22;31788;6.954;-71.872;2023-03-04T00:56:29;28.40;93.80
46055;DHT22;31788;6.954;-71.872;2023-03-04T00:58:56;28.30;93.80
46055;DHT22;31788;6.954;-71.872;2023-03-04T01:01:25;28.30;93.80
46055;DHT22;31788;6.954;-71.872;2023-03-04T01:03:51;28.30;93.90
46055;DHT22;31788;6.954;-71.872;2023-03-04T01:06:18;28.30;93.90
46055;DHT22;31788;6.954;-71.872;2023-03-04T01:08:45;28.30;93.90
46055;DHT22;31788;6.954;-71.872;2023-03-04T01:11:11;28.30;94.10
46055;DHT22;31788;6.954;-71.872;2023-03-04T01:13:38;28.20;94.00
46055;DHT22;31788;6.954;-71.872;2023-03-04T01:16:06;28.20;94.20
46055;DHT22;31788;6.954;-71.872;2023-03-04T01:18:34;28.20;94.10
46055;DHT22;31788;6.954;-71.872;2023-03-04T01:21:00;28.20;94.10
46055;DHT22;31788;6.954;-71.872;2023-03-04T01:23:27;28.20;94.30
46055;DHT22;31788;6.954;-71.872;2023-03-04T01:25:54;28.30;94.10
46055;DHT22;31788;6.954;-71.872;2023-03-04T01:28:20;28.20;94.30
46055;DHT22;31788;6.954;-71.872;2023-03-04T01:30:47;28.20;93.90
46055;DHT22;31788;6.954;-71.872;2023-03-04T01:33:13;28.20;94.00
46055;DHT22;31788;6.954;-71.872;2023-03-04T01:35:40;28.20;93.80
46055;DHT22;31788;6.954;-71.872;2023-03-04T01:38:07;28.20;93.70
46055;DHT22;31788;6.954;-71.872;2023-03-04T01:40:33;28.10;93.60
46055;DHT22;31788;6.954;-71.872;2023-03-04T01:43:00;28.10;93.30
46055;DHT22;31788;6.954;-71.872;2023-03-04T01:45:35;28.10;93.50
46055;DHT22;31788;6.954;-71.872;2023-03-04T01:48:02;28.10;93.50
46055;DHT22;31788;6.954;-71.872;2023-03-04T01:50:33;28.10;93.30
46055;DHT22;31788;6.954;-71.872;2023-03-04T01:53:01;28.10;93.20
46055;DHT22;31788;6.954;-71.872;2023-03-04T01:55:29;28.10;93.10
46055;DHT22;31788;6.954;-71.872;2023-03-04T01:57:56;28.10;92.90
46055;DHT22;31788;6.954;-71.872;2023-03-04T02:00:31;28.20;93.00
46055;DHT22;31788;6.954;-71.872;2023-03-04T02:03:01;28.20;93.10
46055;DHT22;31788;6.954;-71.872;2023-03-04T02:05:29;28.10;92.80
46055;DHT22;31788;6.954;-71.872;2023-03-04T02:07:57;28.10;92.80
46055;DHT22;31788;6.954;-71.872;2023-03-04T02:10:26;28.20;92.90
46055;DHT22;31788;6.954;-71.872;2023-03-04T02:12:53;28.20;92.80
46055;DHT22;31788;6.954;-71.872;2023-03-04T02:15:20;28.20;92.60
46055;DHT22;31788;6.954;-71.872;2023-03-04T02:17:53;28.20;92.60
46055;DHT22;31788;6.954;-71.872;2023-03-04T02:28:34;28.30;92.40
46055;DHT22;31788;6.954;-71.872;2023-03-04T02:31:03;28.30;92.20
46055;DHT22;31788;6.954;-71.872;2023-03-04T02:33:30;28.30;92.00
46055;DHT22;31788;6.954;-71.872;2023-03-04T02:35:58;28.20;91.70
46055;DHT22;31788;6.954;-71.872;2023-03-04T02:38:25;28.20;91.60
46055;DHT22;31788;6.954;-71.872;2023-03-04T02:40:54;28.20;91.50
46055;DHT22;31788;6.954;-71.872;2023-03-04T02:43:21;28.20;91.30
46055;DHT22;31788;6.954;-71.872;2023-03-04T02:45:49;28.20;91.30
46055;DHT22;31788;6.954;-71.872;2023-03-04T02:48:19;28.20;91.10
46055;DHT22;31788;6.954;-71.872;2023-03-04T02:50:51;28.20;91.00
46055;DHT22;31788;6.954;-71.872;2023-03-04T02:53:19;28.20;90.90
46055;DHT22;31788;6.954;-71.872;2023-03-04T02:55:46;28.20;90.90
46055;DHT22;31788;6.954;-71.872;2023-03-04T02:58:13;28.20;90.80
46055;DHT22;31788;6.954;-71.872;2023-03-04T03:00:40;28.20;90.90
46055;DHT22;31788;6.954;-71.872;2023-03-04T03:03:07;28.20;90.90
46055;DHT22;31788;6.954;-71.872;2023-03-04T03:05:34;28.20;90.80
46055;DHT22;31788;6.954;-71.872;2023-03-04T03:08:01;28.20;90.70
46055;DHT22;31788;6.954;-71.872;2023-03-04T03:10:28;28.20;90.70
46055;DHT22;31788;6.954;-71.872;2023-03-04T03:12:54;28.10;90.70
46055;DHT22;31788;6.954;-71.872;2023-03-04T03:15:21;28.10;90.60
46055;DHT22;31788;6.954;-71.872;2023-03-04T03:17:48;28.10;90.70
46055;DHT22;31788;6.954;-71.872;2023-03-04T03:20:15;28.10;90.70
46055;DHT22;31788;6.954;-71.872;2023-03-04T03:22:42;28.10;90.50
46055;DHT22;31788;6.954;-71.872;2023-03-04T03:25:10;28.10;90.40
46055;DHT22;31788;6.954;-71.872;2023-03-04T03:27:37;28.10;90.40
46055;DHT22;31788;6.954;-71.872;2023-03-04T03:30:08;28.20;90.40
46055;DHT22;31788;6.954;-71.872;2023-03-04T03:32:35;28.20;90.40
46055;DHT22;31788;6.954;-71.872;2023-03-04T03:35:01;28.20;90.50
46055;DHT22;31788;6.954;-71.872;2023-03-04T03:37:28;28.20;90.40
46055;DHT22;31788;6.954;-71.872;2023-03-04T03:39:54;28.10;90.60
46055;DHT22;31788;6.954;-71.872;2023-03-04T03:42:21;28.10;90.40
46055;DHT22;31788;6.954;-71.872;2023-03-04T03:44:47;28.10;90.40
46055;DHT22;31788;6.954;-71.872;2023-03-04T03:47:15;28.10;90.40
46055;DHT22;31788;6.954;-71.872;2023-03-04T03:49:42;28.10;90.50
46055;DHT22;31788;6.954;-71.872;2023-03-04T03:52:08;28.10;90.90
46055;DHT22;31788;6.954;-71.872;2023-03-04T03:54:35;28.10;90.60
46055;DHT22;31788;6.954;-71.872;2023-03-04T03:57:01;28.10;90.70
46055;DHT22;31788;6.954;-71.872;2023-03-04T03:59:28;28.10;90.50
46055;DHT22;31788;6.954;-71.872;2023-03-04T04:01:55;28.10;90.60
46055;DHT22;31788;6.954;-71.872;2023-03-04T04:04:21;28.10;90.70
46055;DHT22;31788;6.954;-71.872;2023-03-04T04:06:49;28.10;91.00
46055;DHT22;31788;6.954;-71.872;2023-03-04T04:09:16;28.10;90.60
46055;DHT22;31788;6.954;-71.872;2023-03-04T04:11:42;28.10;90.70
46055;DHT22;31788;6.954;-71.872;2023-03-04T04:14:12;28.10;90.70
46055;DHT22;31788;6.954;-71.872;2023-03-04T04:16:39;28.10;90.70
46055;DHT22;31788;6.954;-71.872;2023-03-04T04:19:05;28.00;90.80
46055;DHT22;31788;6.954;-71.872;2023-03-04T04:21:32;28.00;90.80
46055;DHT22;31788;6.954;-71.872;2023-03-04T04:24:20;28.00;90.60
46055;DHT22;31788;6.954;-71.872;2023-03-04T04:26:46;28.00;90.80
46055;DHT22;31788;6.954;-71.872;2023-03-04T04:29:14;28.00;90.70
46055;DHT22;31788;6.954;-71.872;2023-03-04T04:31:40;28.00;90.70
46055;DHT22;31788;6.954;-71.872;2023-03-04T04:34:07;28.00;90.70
46055;DHT22;31788;6.954;-71.872;2023-03-04T04:36:34;28.00;90.80
46055;DHT22;31788;6.954;-71.872;2023-03-04T04:39:01;28.00;90.70
46055;DHT22;31788;6.954;-71.872;2023-03-04T04:41:30;28.00;90.70
46055;DHT22;31788;6.954;-71.872;2023-03-04T04:43:57;28.00;90.80
46055;DHT22;31788;6.954;-71.872;2023-03-04T04:46:24;28.00;90.80
46055;DHT22;31788;6.954;-71.872;2023-03-04T04:48:51;28.00;90.80
46055;DHT22;31788;6.954;-71.872;2023-03-04T04:51:17;28.00;90.90
46055;DHT22;31788;6.954;-71.872;2023-03-04T04:53:44;28.00;90.80
46055;DHT22;31788;6.954;-71.872;2023-03-04T04:56:17;27.90;90.70
46055;DHT22;31788;6.954;-71.872;2023-03-04T04:58:47;28.00;90.70
46055;DHT22;31788;6.954;-71.872;2023-03-04T05:01:14;28.00;90.60
46055;DHT22;31788;6.954;-71.872;2023-03-04T05:03:41;28.00;90.70
46055;DHT22;31788;6.954;-71.872;2023-03-04T05:06:09;28.00;90.70
46055;DHT22;31788;6.954;-71.872;2023-03-04T05:08:39;28.00;90.70
46055;DHT22;31788;6.954;-71.872;2023-03-04T05:11:06;28.00;90.80
46055;DHT22;31788;6.954;-71.872;2023-03-04T05:13:33;28.00;90.90
46055;DHT22;31788;6.954;-71.872;2023-03-04T05:16:01;28.00;91.10
46055;DHT22;31788;6.954;-71.872;2023-03-04T05:18:28;28.00;90.90
46055;DHT22;31788;6.954;-71.872;2023-03-04T05:20:57;27.90;90.90
46055;DHT22;31788;6.954;-71.872;2023-03-04T05:23:29;28.00;90.90
46055;DHT22;31788;6.954;-71.872;2023-03-04T05:25:56;27.90;90.90
46055;DHT22;31788;6.954;-71.872;2023-03-04T05:28:23;28.00;90.90
46055;DHT22;31788;6.954;-71.872;2023-03-04T05:30:49;27.90;90.90
46055;DHT22;31788;6.954;-71.872;2023-03-04T05:33:17;28.00;90.90
46055;DHT22;31788;6.954;-71.872;2023-03-04T05:35:44;27.90;90.90
46055;DHT22;31788;6.954;-71.872;2023-03-04T05:38:14;27.90;90.90
46055;DHT22;31788;6.954;-71.872;2023-03-04T05:40:41;27.90;90.90
46055;DHT22;31788;6.954;-71.872;2023-03-04T05:43:09;27.90;90.90
46055;DHT22;31788;6.954;-71.872;2023-03-04T05:45:36;27.90;90.90
46055;DHT22;31788;6.954;-71.872;2023-03-04T05:48:04;27.90;91.00
46055;DHT22;31788;6.954;-71.872;2023-03-04T05:50:31;27.90;91.00
46055;DHT22;31788;6.954;-71.872;2023-03-04T05:52:57;27.90;91.10
46055;DHT22;31788;6.954;-71.872;2023-03-04T05:55:25;27.90;91.00
46055;DHT22;31788;6.954;-71.872;2023-03-04T05:57:53;27.90;91.00
46055;DHT22;31788;6.954;-71.872;2023-03-04T06:00:20;27.90;91.00
46055;DHT22;31788;6.954;-71.872;2023-03-04T06:02:47;27.90;91.10
46055;DHT22;31788;6.954;-71.872;2023-03-04T06:05:14;27.90;91.00
46055;DHT22;31788;6.954;-71.872;2023-03-04T06:07:42;27.90;91.00
46055;DHT22;31788;6.954;-71.872;2023-03-04T06:10:11;27.90;91.10
46055;DHT22;31788;6.954;-71.872;2023-03-04T06:12:38;27.90;91.10
46055;DHT22;31788;6.954;-71.872;2023-03-04T06:15:05;27.90;91.40
46055;DHT22;31788;6.954;-71.872;2023-03-04T06:17:32;27.90;91.30
46055;DHT22;31788;6.954;-71.872;2023-03-04T06:19:58;27.90;91.20
46055;DHT22;31788;6.954;-71.872;2023-03-04T06:22:25;27.80;91.00
46055;DHT22;31788;6.954;-71.872;2023-03-04T06:24:51;27.90;91.00
46055;DHT22;31788;6.954;-71.872;2023-03-04T06:27:18;27.90;91.00
46055;DHT22;31788;6.954;-71.872;2023-03-04T06:29:44;27.90;91.00
46055;DHT22;31788;6.954;-71.872;2023-03-04T06:32:11;27.90;91.10
46055;DHT22;31788;6.954;-71.872;2023-03-04T06:34:38;27.80;90.90
46055;DHT22;31788;6.954;-71.872;2023-03-04T06:37:04;27.80;91.00
46055;DHT22;31788;6.954;-71.872;2023-03-04T06:39:31;27.90;91.20
46055;DHT22;31788;6.954;-71.872;2023-03-04T06:41:58;27.90;91.10
46055;DHT22;31788;6.954;-71.872;2023-03-04T06:44:24;27.90;91.00
46055;DHT22;31788;6.954;-71.872;2023-03-04T06:46:51;27.90;91.00
46055;DHT22;31788;6.954;-71.872;2023-03-04T06:49:17;27.80;91.00
46055;DHT22;31788;6.954;-71.872;2023-03-04T06:51:44;27.90;91.00
46055;DHT22;31788;6.954;-71.872;2023-03-04T06:54:10;27.80;91.00
46055;DHT22;31788;6.954;-71.872;2023-03-04T06:56:37;27.90;90.90
46055;DHT22;31788;6.954;-71.872;2023-03-04T06:59:04;27.90;90.90
46055;DHT22;31788;6.954;-71.872;2023-03-04T07:01:31;27.80;90.90
46055;DHT22;31788;6.954;-71.872;2023-03-04T07:03:57;27.80;90.90
46055;DHT22;31788;6.954;-71.872;2023-03-04T07:06:26;27.80;90.90
46055;DHT22;31788;6.954;-71.872;2023-03-04T07:08:54;27.80;91.00
46055;DHT22;31788;6.954;-71.872;2023-03-04T07:11:21;27.90;90.90
46055;DHT22;31788;6.954;-71.872;2023-03-04T07:13:49;27.90;91.00
46055;DHT22;31788;6.954;-71.872;2023-03-04T07:16:19;27.90;90.90
46055;DHT22;31788;6.954;-71.872;2023-03-04T07:18:46;27.80;91.00
46055;DHT22;31788;6.954;-71.872;2023-03-04T07:21:14;27.80;90.90
46055;DHT22;31788;6.954;-71.872;2023-03-04T07:23:41;27.80;91.00
46055;DHT22;31788;6.954;-71.872;2023-03-04T07:26:08;27.90;90.90
46055;DHT22;31788;6.954;-71.872;2023-03-04T07:28:35;27.80;90.90
46055;DHT22;31788;6.954;-71.872;2023-03-04T07:31:24;27.90;91.00
46055;DHT22;31788;6.954;-71.872;2023-03-04T07:33:56;27.80;90.90
46055;DHT22;31788;6.954;-71.872;2023-03-04T07:36:23;27.90;90.90
46055;DHT22;31788;6.954;-71.872;2023-03-04T07:38:50;27.80;90.80
46055;DHT22;31788;6.954;-71.872;2023-03-04T07:41:21;27.90;90.90
46055;DHT22;31788;6.954;-71.872;2023-03-04T07:43:48;27.90;90.90
46055;DHT22;31788;6.954;-71.872;2023-03-04T07:46:15;27.80;91.10
46055;DHT22;31788;6.954;-71.872;2023-03-04T07:48:42;27.90;91.20
46055;DHT22;31788;6.954;-71.872;2023-03-04T07:51:19;27.90;91.30
46055;DHT22;31788;6.954;-71.872;2023-03-04T07:53:48;27.80;91.20
46055;DHT22;31788;6.954;-71.872;2023-03-04T07:56:19;27.90;91.20
46055;DHT22;31788;6.954;-71.872;2023-03-04T07:58:46;27.80;91.10
46055;DHT22;31788;6.954;-71.872;2023-03-04T08:01:15;27.80;91.50
46055;DHT22;31788;6.954;-71.872;2023-03-04T08:03:43;27.80;91.30
46055;DHT22;31788;6.954;-71.872;2023-03-04T08:06:11;27.80;91.50
46055;DHT22;31788;6.954;-71.872;2023-03-04T08:08:39;27.80;91.50
46055;DHT22;31788;6.954;-71.872;2023-03-04T08:11:09;27.80;91.50
46055;DHT22;31788;6.954;-71.872;2023-03-04T08:13:37;27.80;91.30
46055;DHT22;31788;6.954;-71.872;2023-03-04T08:16:04;27.80;91.40
46055;DHT22;31788;6.954;-71.872;2023-03-04T08:18:31;27.80;91.40
46055;DHT22;31788;6.954;-71.872;2023-03-04T08:20:58;27.80;91.40
46055;DHT22;31788;6.954;-71.872;2023-03-04T08:23:25;27.70;91.30
46055;DHT22;31788;6.954;-71.872;2023-03-04T08:25:51;27.70;91.40
46055;DHT22;31788;6.954;-71.872;2023-03-04T08:28:18;27.70;91.40
46055;DHT22;31788;6.954;-71.872;2023-03-04T08:30:50;27.70;91.50
46055;DHT22;31788;6.954;-71.872;2023-03-04T08:33:17;27.70;91.40
46055;DHT22;31788;6.954;-71.872;2023-03-04T08:35:44;27.70;91.60
46055;DHT22;31788;6.954;-71.872;2023-03-04T08:38:10;27.70;92.10
46055;DHT22;31788;6.954;-71.872;2023-03-04T08:40:37;27.70;92.00
46055;DHT22;31788;6.954;-71.872;2023-03-04T08:43:06;27.70;92.00
46055;DHT22;31788;6.954;-71.872;2023-03-04T08:45:33;27.70;92.10
46055;DHT22;31788;6.954;-71.872;2023-03-04T08:48:00;27.70;92.60
46055;DHT22;31788;6.954;-71.872;2023-03-04T08:50:27;27.70;92.50
46055;DHT22;31788;6.954;-71.872;2023-03-04T08:52:54;27.70;92.80
46055;DHT22;31788;6.954;-71.872;2023-03-04T08:55:20;27.70;93.00
46055;DHT22;31788;6.954;-71.872;2023-03-04T08:57:47;27.60;93.50
46055;DHT22;31788;6.954;-71.872;2023-03-04T09:00:14;27.60;93.60
46055;DHT22;31788;6.954;-71.872;2023-03-04T09:02:40;27.60;94.00
46055;DHT22;31788;6.954;-71.872;2023-03-04T09:05:07;27.50;93.70
46055;DHT22;31788;6.954;-71.872;2023-03-04T09:07:34;27.50;94.00
46055;DHT22;31788;6.954;-71.872;2023-03-04T09:10:01;27.50;94.20
46055;DHT22;31788;6.954;-71.872;2023-03-04T09:12:27;27.40;94.30
46055;DHT22;31788;6.954;-71.872;2023-03-04T09:14:54;27.40;94.50
46055;DHT22;31788;6.954;-71.872;2023-03-04T09:17:20;27.40;94.60
46055;DHT22;31788;6.954;-71.872;2023-03-04T09:19:47;27.40;94.70
46055;DHT22;31788;6.954;-71.872;2023-03-04T09:22:14;27.40;95.00
46055;DHT22;31788;6.954;-71.872;2023-03-04T09:24:40;27.30;95.30
46055;DHT22;31788;6.954;-71.872;2023-03-04T09:27:08;27.30;95.10
46055;DHT22;31788;6.954;-71.872;2023-03-04T09:29:35;27.30;95.10
46055;DHT22;31788;6.954;-71.872;2023-03-04T09:32:01;27.30;95.10
46055;DHT22;31788;6.954;-71.872;2023-03-04T09:34:28;27.30;95.10
46055;DHT22;31788;6.954;-71.872;2023-03-04T09:36:55;27.30;95.30
46055;DHT22;31788;6.954;-71.872;2023-03-04T09:39:21;27.20;95.00
46055;DHT22;31788;6.954;-71.872;2023-03-04T09:41:50;27.20;95.10
46055;DHT22;31788;6.954;-71.872;2023-03-04T09:46:56;27.20;94.90
46055;DHT22;31788;6.954;-71.872;2023-03-04T09:49:24;27.20;95.00
46055;DHT22;31788;6.954;-71.872;2023-03-04T09:57:43;27.20;95.30
46055;DHT22;31788;6.954;-71.872;2023-03-04T10:00:57;27.20;95.10
46055;DHT22;31788;6.954;-71.872;2023-03-04T10:06:05;27.20;95.10
46055;DHT22;31788;6.954;-71.872;2023-03-04T10:08:37;27.20;95.10
46055;DHT22;31788;6.954;-71.872;2023-03-04T10:16:55;27.10;95.20
46055;DHT22;31788;6.954;-71.872;2023-03-04T10:19:29;27.10;95.20
46055;DHT22;31788;6.954;-71.872;2023-03-04T10:21:55;27.00;95.30
46055;DHT22;31788;6.954;-71.872;2023-03-04T10:24:27;27.00;95.60
46055;DHT22;31788;6.954;-71.872;2023-03-04T10:27:06;27.00;95.60
46055;DHT22;31788;6.954;-71.872;2023-03-04T10:29:35;27.00;95.70
46055;DHT22;31788;6.954;-71.872;2023-03-04T10:32:02;27.00;95.40
46055;DHT22;31788;6.954;-71.872;2023-03-04T10:34:29;27.10;95.20
46055;DHT22;31788;6.954;-71.872;2023-03-04T10:39:33;27.10;95.40
46055;DHT22;31788;6.954;-71.872;2023-03-04T10:42:23;27.20;95.20
46055;DHT22;31788;6.954;-71.872;2023-03-04T10:44:53;27.20;95.00
46055;DHT22;31788;6.954;-71.872;2023-03-04T10:47:23;27.20;94.90
46055;DHT22;31788;6.954;-71.872;2023-03-04T10:49:58;27.20;94.80
46055;DHT22;31788;6.954;-71.872;2023-03-04T10:55:41;27.10;94.90
46055;DHT22;31788;6.954;-71.872;2023-03-04T10:57:50;27.10;95.00
46055;DHT22;31788;6.954;-71.872;2023-03-04T11:02:45;27.00;95.80
46055;DHT22;31788;6.954;-71.872;2023-03-04T11:05:24;27.10;95.30
46055;DHT22;31788;6.954;-71.872;2023-03-04T11:07:53;27.00;95.30
46055;DHT22;31788;6.954;-71.872;2023-03-04T11:10:30;27.00;95.30
46055;DHT22;31788;6.954;-71.872;2023-03-04T11:15:26;27.10;95.40
46055;DHT22;31788;6.954;-71.872;2023-03-04T11:18:13;27.10;95.20
46055;DHT22;31788;6.954;-71.872;2023-03-04T11:20:46;27.10;95.00
46055;DHT22;31788;6.954;-71.872;2023-03-04T11:23:22;27.00;95.30
46055;DHT22;31788;6.954;-71.872;2023-03-04T11:26:27;27.00;95.30
46055;DHT22;31788;6.954;-71.872;2023-03-04T11:29:07;27.00;95.40
46055;DHT22;31788;6.954;-71.872;2023-03-04T11:31:46;27.00;95.50
46055;DHT22;31788;6.954;-71.872;2023-03-04T11:34:29;27.00;95.50
46055;DHT22;31788;6.954;-71.872;2023-03-04T11:37:11;27.10;95.30
46055;DHT22;31788;6.954;-71.872;2023-03-04T11:45:02;27.10;95.00
46055;DHT22;31788;6.954;-71.872;2023-03-04T11:50:50;27.10;94.80
46055;DHT22;31788;6.954;-71.872;2023-03-04T12:05:03;27.10;95.10
46055;DHT22;31788;6.954;-71.872;2023-03-04T12:13:11;27.10;95.10
46055;DHT22;31788;6.954;-71.872;2023-03-04T12:26:42;27.10;95.60
46055;DHT22;31788;6.954;-71.872;2023-03-04T12:29:13;27.10;95.70
46055;DHT22;31788;6.954;-71.872;2023-03-04T12:31:45;27.10;95.60
46055;DHT22;31788;6.954;-71.872;2023-03-04T12:45:24;27.00;95.80
46055;DHT22;31788;6.954;-71.872;2023-03-04T12:48:06;27.00;95.70
46055;DHT22;31788;6.954;-71.872;2023-03-04T12:51:11;27.00;95.70
46055;DHT22;31788;6.954;-71.872;2023-03-04T12:56:44;27.00;95.80
46055;DHT22;31788;6.954;-71.872;2023-03-04T12:59:16;27.00;95.60
46055;DHT22;31788;6.954;-71.872;2023-03-04T13:04:32;27.00;95.60
46055;DHT22;31788;6.954;-71.872;2023-03-04T13:10:17;27.10;95.50
46055;DHT22;31788;6.954;-71.872;2023-03-04T13:12:59;27.00;95.50
46055;DHT22;31788;6.954;-71.872;2023-03-04T13:15:30;27.00;95.50
46055;DHT22;31788;6.954;-71.872;2023-03-04T13:18:14;27.00;95.40
46055;DHT22;31788;6.954;-71.872;2023-03-04T13:23:38;27.00;95.70
46055;DHT22;31788;6.954;-71.872;2023-03-04T13:26:34;27.00;96.20
46055;DHT22;31788;6.954;-71.872;2023-03-04T13:32:10;26.80;97.20
46055;DHT22;31788;6.954;-71.872;2023-03-04T13:34:52;26.80;97.20
46055;DHT22;31788;6.954;-71.872;2023-03-04T13:37:28;26.80;97.20
46055;DHT22;31788;6.954;-71.872;2023-03-04T13:42:49;26.80;97.60
46055;DHT22;31788;6.954;-71.872;2023-03-04T13:45:36;26.80;97.90
46055;DHT22;31788;6.954;-71.872;2023-03-04T13:48:28;26.70;98.10
46055;DHT22;31788;6.954;-71.872;2023-03-04T13:50:57;26.70;98.00
46055;DHT22;31788;6.954;-71.872;2023-03-04T13:53:37;26.70;98.30
46055;DHT22;31788;6.954;-71.872;2023-03-04T13:58:35;26.70;98.30
46055;DHT22;31788;6.954;-71.872;2023-03-04T14:01:03;26.70;98.50
46055;DHT22;31788;6.954;-71.872;2023-03-04T14:03:34;26.70;98.80
46055;DHT22;31788;6.954;-71.872;2023-03-04T14:06:24;26.70;99.00
46055;DHT22;31788;6.954;-71.872;2023-03-04T14:08:53;26.60;99.00
46055;DHT22;31788;6.954;-71.872;2023-03-04T14:11:28;26.60;98.90
46055;DHT22;31788;6.954;-71.872;2023-03-04T14:13:59;26.60;99.00
46055;DHT22;31788;6.954;-71.872;2023-03-04T14:16:27;26.60;98.90
46055;DHT22;31788;6.954;-71.872;2023-03-04T14:19:00;26.60;99.00
46055;DHT22;31788;6.954;-71.872;2023-03-04T14:21:27;26.60;98.90
46055;DHT22;31788;6.954;-71.872;2023-03-04T14:24:06;26.60;98.90
46055;DHT22;31788;6.954;-71.872;2023-03-04T14:26:33;26.60;99.10
46055;DHT22;31788;6.954;-71.872;2023-03-04T14:29:00;26.60;99.20
46055;DHT22;31788;6.954;-71.872;2023-03-04T14:31:30;26.60;99.10
46055;DHT22;31788;6.954;-71.872;2023-03-04T14:34:00;26.70;99.10
46055;DHT22;31788;6.954;-71.872;2023-03-04T14:36:30;26.70;99.10
46055;DHT22;31788;6.954;-71.872;2023-03-04T14:39:03;26.70;98.90
46055;DHT22;31788;6.954;-71.872;2023-03-04T14:41:34;26.70;98.80
46055;DHT22;31788;6.954;-71.872;2023-03-04T14:46:47;26.70;98.90
46055;DHT22;31788;6.954;-71.872;2023-03-04T14:49:14;26.70;98.90
46055;DHT22;31788;6.954;-71.872;2023-03-04T14:51:47;26.70;98.90
46055;DHT22;31788;6.954;-71.872;2023-03-04T14:54:33;26.80;99.00
46055;DHT22;31788;6.954;-71.872;2023-03-04T14:57:46;26.80;98.80
46055;DHT22;31788;6.954;-71.872;2023-03-04T14:59:49;26.80;98.90
46055;DHT22;31788;6.954;-71.872;2023-03-04T15:02:28;26.80;99.10
46055;DHT22;31788;6.954;-71.872;2023-03-04T15:05:06;26.80;98.90
46055;DHT22;31788;6.954;-71.872;2023-03-04T15:07:35;26.80;98.80
46055;DHT22;31788;6.954;-71.872;2023-03-04T15:10:06;26.90;98.80
46055;DHT22;31788;6.954;-71.872;2023-03-04T15:12:35;26.80;99.00
46055;DHT22;31788;6.954;-71.872;2023-03-04T15:18:11;26.90;98.70
46055;DHT22;31788;6.954;-71.872;2023-03-04T15:20:39;26.90;98.70
46055;DHT22;31788;6.954;-71.872;2023-03-04T15:23:06;26.90;98.70
46055;DHT22;31788;6.954;-71.872;2023-03-04T15:25:35;26.90;98.40
46055;DHT22;31788;6.954;-71.872;2023-03-04T15:28:02;26.90;98.40
46055;DHT22;31788;6.954;-71.872;2023-03-04T15:30:31;26.90;98.40
46055;DHT22;31788;6.954;-71.872;2023-03-04T15:32:59;26.90;98.20
46055;DHT22;31788;6.954;-71.872;2023-03-04T15:35:31;26.90;98.20
46055;DHT22;31788;6.954;-71.872;2023-03-04T15:37:59;26.90;98.50
46055;DHT22;31788;6.954;-71.872;2023-03-04T15:40:32;26.90;98.30
46055;DHT22;31788;6.954;-71.872;2023-03-04T15:43:02;26.90;98.20
46055;DHT22;31788;6.954;-71.872;2023-03-04T15:45:32;26.90;98.20
46055;DHT22;31788;6.954;-71.872;2023-03-04T15:48:04;27.00;98.30
46055;DHT22;31788;6.954;-71.872;2023-03-04T15:50:35;27.00;98.30
46055;DHT22;31788;6.954;-71.872;2023-03-04T15:53:05;27.00;98.00
46055;DHT22;31788;6.954;-71.872;2023-03-04T15:55:32;27.10;97.80
46055;DHT22;31788;6.954;-71.872;2023-03-04T15:58:00;27.10;97.70
46055;DHT22;31788;6.954;-71.872;2023-03-04T16:00:28;27.10;97.50
46055;DHT22;31788;6.954;-71.872;2023-03-04T16:02:57;27.10;97.50
46055;DHT22;31788;6.954;-71.872;2023-03-04T16:05:23;27.10;97.50
46055;DHT22;31788;6.954;-71.872;2023-03-04T16:07:51;27.10;97.40
46055;DHT22;31788;6.954;-71.872;2023-03-04T16:10:28;27.20;97.40
46055;DHT22;31788;6.954;-71.872;2023-03-04T16:12:58;27.20;97.50
46055;DHT22;31788;6.954;-71.872;2023-03-04T16:15:27;27.30;97.70
46055;DHT22;31788;6.954;-71.872;2023-03-04T16:17:55;27.30;97.50
46055;DHT22;31788;6.954;-71.872;2023-03-04T16:20:24;27.30;97.50
46055;DHT22;31788;6.954;-71.872;2023-03-04T16:22:56;27.30;97.50
46055;DHT22;31788;6.954;-71.872;2023-03-04T16:25:24;27.40;97.60
46055;DHT22;31788;6.954;-71.872;2023-03-04T16:27:54;27.40;97.50
46055;DHT22;31788;6.954;-71.872;2023-03-04T16:30:29;27.50;97.70
46055;DHT22;31788;6.954;-71.872;2023-03-04T16:32:57;27.50;97.40
46055;DHT22;31788;6.954;-71.872;2023-03-04T16:35:23;27.50;97.50
46055;DHT22;31788;6.954;-71.872;2023-03-04T16:37:52;27.50;97.40
46055;DHT22;31788;6.954;-71.872;2023-03-04T16:40:29;27.50;97.20
46055;DHT22;31788;6.954;-71.872;2023-03-04T16:43:05;27.50;97.30
46055;DHT22;31788;6.954;-71.872;2023-03-04T16:45:40;27.60;97.20
46055;DHT22;31788;6.954;-71.872;2023-03-04T16:48:07;27.60;97.40
46055;DHT22;31788;6.954;-71.872;2023-03-04T16:50:37;27.70;97.30
46055;DHT22;31788;6.954;-71.872;2023-03-04T16:53:36;27.70;97.30
46055;DHT22;31788;6.954;-71.872;2023-03-04T16:56:11;27.70;97.00
46055;DHT22;31788;6.954;-71.872;2023-03-04T16:58:41;27.80;97.20
46055;DHT22;31788;6.954;-71.872;2023-03-04T17:01:21;27.80;97.10
46055;DHT22;31788;6.954;-71.872;2023-03-04T17:03:48;27.80;97.00
46055;DHT22;31788;6.954;-71.872;2023-03-04T17:06:17;27.80;97.10
46055;DHT22;31788;6.954;-71.872;2023-03-04T17:08:44;27.80;97.10
46055;DHT22;31788;6.954;-71.872;2023-03-04T17:11:18;27.90;97.00
46055;DHT22;31788;6.954;-71.872;2023-03-04T17:13:46;27.90;97.00
46055;DHT22;31788;6.954;-71.872;2023-03-04T17:16:13;27.90;96.80
46055;DHT22;31788;6.954;-71.872;2023-03-04T17:18:40;27.90;96.80